sensor_id;sensor_type;location;lat;lon;timestamp;pressure;altitude;pressure_sealevel;temperature;humidity
78123;BME280;67376;44.802;10.332;2023-04-03T00:00:18;100706.34;;;20.23;34.11
78123;BME280;67376;44.802;10.332;2023-04-03T00:02:43;100713.41;;;20.24;34.38
78123;BME280;67376;44.802;10.332;2023-04-03T00:05:09;100717.19;;;20.23;34.04
78123;BME280;67376;44.802;10.332;2023-04-03T00:07:34;100713.66;;;20.23;34.21
78123;BME280;67376;44.802;10.332;2023-04-03T00:10:00;100712.81;;;20.22;34.51
78123;BME280;67376;44.802;10.332;2023-04-03T00:12:25;100706.63;;;20.22;34.87
78123;BME280;67376;44.802;10.332;2023-04-03T00:14:50;100704.69;;;20.22;34.30
78123;BME280;67376;44.802;10.332;2023-04-03T00:17:16;100709.06;;;20.23;34.76
78123;BME280;67376;44.802;10.332;2023-04-03T00:19:41;100712.03;;;20.22;34.14
78123;BME280;67376;44.802;10.332;2023-04-03T00:22:06;100708.50;;;20.21;35.06
78123;BME280;67376;44.802;10.332;2023-04-03T00:24:32;100717.47;;;20.22;34.72
78123;BME280;67376;44.802;10.332;2023-04-03T00:26:57;100717.69;;;20.20;34.87
78123;BME280;67376;44.802;10.332;2023-04-03T00:29:22;100713.91;;;20.21;34.10
78123;BME280;67376;44.802;10.332;2023-04-03T00:31:48;100713.09;;;20.21;34.48
78123;BME280;67376;44.802;10.332;2023-04-03T00:34:13;100701.44;;;20.20;35.26
78123;BME280;67376;44.802;10.332;2023-04-03T00:36:38;100703.06;;;20.21;34.95
78123;BME280;67376;44.802;10.332;2023-04-03T00:39:04;100700.38;;;20.21;35.29
78123;BME280;67376;44.802;10.332;2023-04-03T00:41:29;100697.66;;;20.21;35.34
78123;BME280;67376;44.802;10.332;2023-04-03T00:43:55;100696.84;;;20.21;34.79
78123;BME280;67376;44.802;10.332;2023-04-03T00:46:20;100688.69;;;20.21;34.67
78123;BME280;67376;44.802;10.332;2023-04-03T00:48:47;100687.88;;;20.20;34.54
78123;BME280;67376;44.802;10.332;2023-04-03T00:51:20;100694.13;;;20.21;34.82
78123;BME280;67376;44.802;10.332;2023-04-03T00:53:50;100688.09;;;20.19;35.12
78123;BME280;67376;44.802;10.332;2023-04-03T00:56:18;100683.50;;;20.19;34.69
78123;BME280;67376;44.802;10.332;2023-04-03T00:58:50;100687.88;;;20.20;34.22
78123;BME280;67376;44.802;10.332;2023-04-03T01:01:21;100692.47;;;20.20;34.48
78123;BME280;67376;44.802;10.332;2023-04-03T01:03:48;100695.19;;;20.20;35.32
78123;BME280;67376;44.802;10.332;2023-04-03T01:06:16;100695.19;;;20.20;34.97
78123;BME280;67376;44.802;10.332;2023-04-03T01:08:42;100689.41;;;20.16;34.66
78123;BME280;67376;44.802;10.332;2023-04-03T01:11:08;100690.81;;;20.19;35.02
78123;BME280;67376;44.802;10.332;2023-04-03T01:13:33;100682.31;;;20.15;34.77
78123;BME280;67376;44.802;10.332;2023-04-03T01:16:04;100694.59;;;20.18;35.32
78123;BME280;67376;44.802;10.332;2023-04-03T01:18:31;100685.88;;;20.16;34.95
78123;BME280;67376;44.802;10.332;2023-04-03T01:26:21;100688.34;;;20.17;34.31
78123;BME280;67376;44.802;10.332;2023-04-03T01:28:47;100684.81;;;20.17;35.47
78123;BME280;67376;44.802;10.332;2023-04-03T01:31:20;100692.13;;;20.16;34.94
78123;BME280;67376;44.802;10.332;2023-04-03T01:33:47;100689.41;;;20.16;35.12
78123;BME280;67376;44.802;10.332;2023-04-03T01:36:19;100681.50;;;20.15;34.38
78123;BME280;67376;44.802;10.332;2023-04-03T01:38:45;100686.69;;;20.16;35.20
78123;BME280;67376;44.802;10.332;2023-04-03T01:41:11;100682.56;;;20.14;34.77
78123;BME280;67376;44.802;10.332;2023-04-03T01:43:36;100680.44;;;20.16;34.74
78123;BME280;67376;44.802;10.332;2023-04-03T01:46:02;100679.63;;;20.15;34.28
78123;BME280;67376;44.802;10.332;2023-04-03T01:48:27;100680.69;;;20.14;34.84
78123;BME280;67376;44.802;10.332;2023-04-03T01:50:53;100672.56;;;20.14;35.31
78123;BME280;67376;44.802;10.332;2023-04-03T01:53:19;100671.97;;;20.12;34.84
78123;BME280;67376;44.802;10.332;2023-04-03T01:55:44;100674.44;;;20.14;35.42
78123;BME280;67376;44.802;10.332;2023-04-03T01:58:10;100668.19;;;20.13;35.29
78123;BME280;67376;44.802;10.332;2023-04-03T02:00:35;100671.50;;;20.15;35.22
78123;BME280;67376;44.802;10.332;2023-04-03T02:03:01;100676.09;;;20.15;34.54
78123;BME280;67376;44.802;10.332;2023-04-03T02:05:27;100666.91;;;20.16;34.76
78123;BME280;67376;44.802;10.332;2023-04-03T02:07:53;100663.34;;;20.15;35.23
78123;BME280;67376;44.802;10.332;2023-04-03T02:10:18;100664.19;;;20.16;35.28
78123;BME280;67376;44.802;10.332;2023-04-03T02:12:44;100665.25;;;20.15;34.57
78123;BME280;67376;44.802;10.332;2023-04-03T02:15:09;100662.53;;;20.15;35.13
78123;BME280;67376;44.802;10.332;2023-04-03T02:17:35;100659.81;;;20.15;35.38
78123;BME280;67376;44.802;10.332;2023-04-03T02:20:01;100652.75;;;20.14;34.46
78123;BME280;67376;44.802;10.332;2023-04-03T02:22:26;100647.56;;;20.12;34.54
78123;BME280;67376;44.802;10.332;2023-04-03T02:24:51;100649.22;;;20.13;34.43
78123;BME280;67376;44.802;10.332;2023-04-03T02:27:17;100649.44;;;20.11;34.57
78123;BME280;67376;44.802;10.332;2023-04-03T02:29:43;100656.53;;;20.13;34.35
78123;BME280;67376;44.802;10.332;2023-04-03T02:32:08;100654.88;;;20.11;34.91
78123;BME280;67376;44.802;10.332;2023-04-03T02:34:33;100660.53;;;20.10;34.55
78123;BME280;67376;44.802;10.332;2023-04-03T02:36:59;100655.09;;;20.10;35.15
78123;BME280;67376;44.802;10.332;2023-04-03T02:39:25;100653.81;;;20.13;35.24
78123;BME280;67376;44.802;10.332;2023-04-03T02:41:51;100650.50;;;20.10;34.49
78123;BME280;67376;44.802;10.332;2023-04-03T02:44:16;100647.22;;;20.08;34.61
78123;BME280;67376;44.802;10.332;2023-04-03T02:46:42;100650.75;;;20.09;34.49
78123;BME280;67376;44.802;10.332;2023-04-03T02:49:07;100649.69;;;20.10;35.36
78123;BME280;67376;44.802;10.332;2023-04-03T02:51:32;100648.03;;;20.09;34.64
78123;BME280;67376;44.802;10.332;2023-04-03T02:53:58;100650.75;;;20.09;34.64
78123;BME280;67376;44.802;10.332;2023-04-03T02:56:23;100653.47;;;20.09;34.36
78123;BME280;67376;44.802;10.332;2023-04-03T02:58:49;100651.22;;;20.06;34.46
78123;BME280;67376;44.802;10.332;2023-04-03T03:01:14;100649.91;;;20.08;34.76
78123;BME280;67376;44.802;10.332;2023-04-03T03:03:41;100642.03;;;20.07;34.47
78123;BME280;67376;44.802;10.332;2023-04-03T03:06:09;100644.72;;;20.07;35.17
78123;BME280;67376;44.802;10.332;2023-04-03T03:08:35;100647.44;;;20.07;35.04
78123;BME280;67376;44.802;10.332;2023-04-03T03:11:02;100643.91;;;20.06;35.30
78123;BME280;67376;44.802;10.332;2023-04-03T03:13:28;100642.84;;;20.07;34.37
78123;BME280;67376;44.802;10.332;2023-04-03T03:15:53;100649.34;;;20.06;34.88
78123;BME280;67376;44.802;10.332;2023-04-03T03:18:19;100653.09;;;20.05;34.65
78123;BME280;67376;44.802;10.332;2023-04-03T03:20:44;100666.41;;;20.07;34.98
78123;BME280;67376;44.802;10.332;2023-04-03T03:23:10;100657.47;;;20.06;34.51
78123;BME280;67376;44.802;10.332;2023-04-03T03:25:40;100642.50;;;20.04;34.85
78123;BME280;67376;44.802;10.332;2023-04-03T03:28:05;100642.25;;;20.05;34.41
78123;BME280;67376;44.802;10.332;2023-04-03T03:30:31;100653.94;;;20.06;35.30
78123;BME280;67376;44.802;10.332;2023-04-03T03:32:56;100654.16;;;20.04;34.96
78123;BME280;67376;44.802;10.332;2023-04-03T03:35:22;100652.50;;;20.03;34.96
78123;BME280;67376;44.802;10.332;2023-04-03T03:37:47;100654.41;;;20.03;34.08
78123;BME280;67376;44.802;10.332;2023-04-03T03:40:13;100642.50;;;20.04;34.55
78123;BME280;67376;44.802;10.332;2023-04-03T03:42:39;100655.22;;;20.03;34.58
78123;BME280;67376;44.802;10.332;2023-04-03T03:45:05;100645.44;;;20.02;34.18
78123;BME280;67376;44.802;10.332;2023-04-03T03:47:30;100646.28;;;20.03;34.02
78123;BME280;67376;44.802;10.332;2023-04-03T03:49:56;100655.22;;;20.03;34.88
78123;BME280;67376;44.802;10.332;2023-04-03T03:52:21;100650.88;;;20.02;34.87
78123;BME280;67376;44.802;10.332;2023-04-03T03:54:46;100653.81;;;20.01;34.40
78123;BME280;67376;44.802;10.332;2023-04-03T03:57:12;100657.34;;;20.01;34.88
78123;BME280;67376;44.802;10.332;2023-04-03T03:59:37;100655.69;;;20.00;34.31
78123;BME280;67376;44.802;10.332;2023-04-03T04:02:03;100661.69;;;20.02;34.08
78123;BME280;67376;44.802;10.332;2023-04-03T04:04:28;100659.22;;;20.01;34.03
78123;BME280;67376;44.802;10.332;2023-04-03T04:06:54;100665.47;;;20.01;34.31
78123;BME280;67376;44.802;10.332;2023-04-03T04:09:19;100656.50;;;20.01;34.89
78123;BME280;67376;44.802;10.332;2023-04-03T04:11:45;100670.06;;;20.01;33.86
78123;BME280;67376;44.802;10.332;2023-04-03T04:14:10;100669.25;;;20.00;34.15
78123;BME280;67376;44.802;10.332;2023-04-03T04:16:37;100667.81;;;19.98;34.50
78123;BME280;67376;44.802;10.332;2023-04-03T04:19:03;100662.41;;;19.98;34.06
78123;BME280;67376;44.802;10.332;2023-04-03T04:21:28;100658.63;;;19.99;33.96
78123;BME280;67376;44.802;10.332;2023-04-03T04:23:53;100665.94;;;19.98;34.58
78123;BME280;67376;44.802;10.332;2023-04-03T04:26:19;100665.13;;;19.98;33.62
78123;BME280;67376;44.802;10.332;2023-04-03T04:28:45;100665.94;;;19.98;33.71
78123;BME280;67376;44.802;10.332;2023-04-03T04:31:10;100665.34;;;19.96;34.75
78123;BME280;67376;44.802;10.332;2023-04-03T04:33:36;100668.66;;;19.98;34.16
78123;BME280;67376;44.802;10.332;2023-04-03T04:36:01;100660.53;;;19.98;33.46
78123;BME280;67376;44.802;10.332;2023-04-03T04:38:26;100663.47;;;19.97;34.63
78123;BME280;67376;44.802;10.332;2023-04-03T04:40:52;100661.81;;;19.96;33.93
78123;BME280;67376;44.802;10.332;2023-04-03T04:43:17;100675.38;;;19.96;34.55
78123;BME280;67376;44.802;10.332;2023-04-03T04:45:43;100673.00;;;19.99;34.07
78123;BME280;67376;44.802;10.332;2023-04-03T04:48:08;100671.94;;;20.00;35.13
78123;BME280;67376;44.802;10.332;2023-04-03T04:50:34;100669.00;;;20.02;34.25
78123;BME280;67376;44.802;10.332;2023-04-03T04:52:59;100669.84;;;20.02;34.22
78123;BME280;67376;44.802;10.332;2023-04-03T04:55:25;100672.53;;;20.02;34.62
78123;BME280;67376;44.802;10.332;2023-04-03T04:57:50;100669.84;;;20.02;35.38
78123;BME280;67376;44.802;10.332;2023-04-03T05:00:17;100673.38;;;20.03;35.45
78123;BME280;67376;44.802;10.332;2023-04-03T05:02:43;100673.13;;;20.04;35.25
78123;BME280;67376;44.802;10.332;2023-04-03T05:05:09;100665.81;;;20.05;34.99
78123;BME280;67376;44.802;10.332;2023-04-03T05:07:34;100680.22;;;20.05;35.87
78123;BME280;67376;44.802;10.332;2023-04-03T05:10:01;100674.78;;;20.05;34.79
78123;BME280;67376;44.802;10.332;2023-04-03T05:12:27;100673.38;;;20.03;35.66
78123;BME280;67376;44.802;10.332;2023-04-03T05:14:53;100680.22;;;20.05;34.71
78123;BME280;67376;44.802;10.332;2023-04-03T05:17:18;100682.69;;;20.07;35.13
78123;BME280;67376;44.802;10.332;2023-04-03T05:19:43;100680.22;;;20.05;35.86
78123;BME280;67376;44.802;10.332;2023-04-03T05:22:09;100684.81;;;20.05;35.34
78123;BME280;67376;44.802;10.332;2023-04-03T05:24:35;100685.63;;;20.05;35.00
78123;BME280;67376;44.802;10.332;2023-04-03T05:27:00;100695.41;;;20.06;35.86
78123;BME280;67376;44.802;10.332;2023-04-03T05:29:26;100688.94;;;20.07;35.38
78123;BME280;67376;44.802;10.332;2023-04-03T05:31:51;100684.56;;;20.06;35.10
78123;BME280;67376;44.802;10.332;2023-04-03T05:34:17;100691.63;;;20.07;35.56
78123;BME280;67376;44.802;10.332;2023-04-03T05:36:42;100692.69;;;20.06;36.06
78123;BME280;67376;44.802;10.332;2023-04-03T05:39:08;100703.31;;;20.08;36.06
78123;BME280;67376;44.802;10.332;2023-04-03T05:41:33;100701.28;;;20.03;35.02
78123;BME280;67376;44.802;10.332;2023-04-03T05:43:59;100704.22;;;19.90;34.69
78123;BME280;67376;44.802;10.332;2023-04-03T05:46:24;100703.13;;;19.79;34.34
78123;BME280;67376;44.802;10.332;2023-04-03T05:48:50;100707.13;;;19.77;34.55
78123;BME280;67376;44.802;10.332;2023-04-03T05:51:18;100715.22;;;19.65;34.91
78123;BME280;67376;44.802;10.332;2023-04-03T05:53:46;100711.78;;;18.43;35.16
78123;BME280;67376;44.802;10.332;2023-04-03T05:56:12;100705.88;;;17.47;36.86
78123;BME280;67376;44.802;10.332;2023-04-03T05:58:38;100716.97;;;16.94;38.01
78123;BME280;67376;44.802;10.332;2023-04-03T06:01:04;100712.63;;;17.69;36.54
78123;BME280;67376;44.802;10.332;2023-04-03T06:03:30;100714.44;;;18.25;36.02
78123;BME280;67376;44.802;10.332;2023-04-03T06:05:56;100711.78;;;18.62;35.43
78123;BME280;67376;44.802;10.332;2023-04-03T06:08:22;100714.44;;;18.87;34.80
78123;BME280;67376;44.802;10.332;2023-04-03T06:10:49;100713.81;;;19.03;34.33
78123;BME280;67376;44.802;10.332;2023-04-03T06:13:15;100721.28;;;19.19;34.44
78123;BME280;67376;44.802;10.332;2023-04-03T06:15:40;100722.41;;;19.30;34.54
78123;BME280;67376;44.802;10.332;2023-04-03T06:18:06;100722.91;;;19.38;34.81
78123;BME280;67376;44.802;10.332;2023-04-03T06:20:32;100723.03;;;19.43;34.70
78123;BME280;67376;44.802;10.332;2023-04-03T06:22:57;100726.94;;;19.48;33.95
78123;BME280;67376;44.802;10.332;2023-04-03T06:25:23;100734.41;;;19.52;33.99
78123;BME280;67376;44.802;10.332;2023-04-03T06:27:48;100735.00;;;19.54;34.40
78123;BME280;67376;44.802;10.332;2023-04-03T06:30:13;100736.44;;;19.57;34.84
78123;BME280;67376;44.802;10.332;2023-04-03T06:32:39;100743.03;;;19.61;34.66
78123;BME280;67376;44.802;10.332;2023-04-03T06:35:05;100739.88;;;19.64;34.88
78123;BME280;67376;44.802;10.332;2023-04-03T06:37:31;100738.78;;;19.65;34.81
78123;BME280;67376;44.802;10.332;2023-04-03T06:39:57;100743.97;;;19.66;34.09
78123;BME280;67376;44.802;10.332;2023-04-03T06:42:23;100742.69;;;19.69;33.99
78123;BME280;67376;44.802;10.332;2023-04-03T06:44:48;100740.81;;;19.69;34.37
78123;BME280;67376;44.802;10.332;2023-04-03T06:47:15;100738.69;;;19.71;34.48
78123;BME280;67376;44.802;10.332;2023-04-03T06:49:41;100736.81;;;19.72;34.20
78123;BME280;67376;44.802;10.332;2023-04-03T06:52:07;100737.63;;;19.72;34.80
78123;BME280;67376;44.802;10.332;2023-04-03T06:54:33;100738.47;;;19.73;34.99
78123;BME280;67376;44.802;10.332;2023-04-03T06:56:58;100746.13;;;19.76;34.25
78123;BME280;67376;44.802;10.332;2023-04-03T06:59:24;100740.47;;;19.77;34.26
78123;BME280;67376;44.802;10.332;2023-04-03T07:01:50;100742.94;;;19.79;35.14
78123;BME280;67376;44.802;10.332;2023-04-03T07:04:15;100750.03;;;19.80;35.04
78123;BME280;67376;44.802;10.332;2023-04-03T07:06:41;100747.31;;;19.80;34.44
78123;BME280;67376;44.802;10.332;2023-04-03T07:09:08;100747.91;;;19.82;34.96
78123;BME280;67376;44.802;10.332;2023-04-03T07:11:34;100749.56;;;19.83;35.34
78123;BME280;67376;44.802;10.332;2023-04-03T07:14:01;100752.88;;;19.85;35.10
78123;BME280;67376;44.802;10.332;2023-04-03T07:16:26;100753.69;;;19.86;35.20
78123;BME280;67376;44.802;10.332;2023-04-03T07:18:52;100752.63;;;19.87;35.17
78123;BME280;67376;44.802;10.332;2023-04-03T07:21:17;100750.50;;;19.89;35.07
78123;BME280;67376;44.802;10.332;2023-04-03T07:23:43;100752.16;;;19.90;34.72
78123;BME280;67376;44.802;10.332;2023-04-03T07:26:08;100754.66;;;19.91;35.22
78123;BME280;67376;44.802;10.332;2023-04-03T07:28:34;100747.56;;;19.90;35.58
78123;BME280;67376;44.802;10.332;2023-04-03T07:31:05;100746.50;;;19.91;35.76
78123;BME280;67376;44.802;10.332;2023-04-03T07:33:32;100746.50;;;19.91;35.56
78123;BME280;67376;44.802;10.332;2023-04-03T07:35:58;100749.59;;;19.95;35.84
78123;BME280;67376;44.802;10.332;2023-04-03T07:38:23;100755.00;;;19.95;36.01
78123;BME280;67376;44.802;10.332;2023-04-03T07:40:50;100747.09;;;19.93;35.66
78123;BME280;67376;44.802;10.332;2023-04-03T07:43:18;100751.25;;;19.96;36.03
78123;BME280;67376;44.802;10.332;2023-04-03T07:45:45;100751.25;;;19.96;35.19
78123;BME280;67376;44.802;10.332;2023-04-03T07:48:12;100763.97;;;19.95;36.24
78123;BME280;67376;44.802;10.332;2023-04-03T07:50:41;100762.31;;;19.94;36.46
78123;BME280;67376;44.802;10.332;2023-04-03T07:53:07;100762.53;;;19.93;37.21
78123;BME280;67376;44.802;10.332;2023-04-03T07:55:33;100759.25;;;19.91;37.10
78123;BME280;67376;44.802;10.332;2023-04-03T07:57:58;100759.00;;;19.92;36.56
78123;BME280;67376;44.802;10.332;2023-04-03T08:00:24;100759.00;;;19.92;36.10
78123;BME280;67376;44.802;10.332;2023-04-03T08:02:50;100762.53;;;19.93;36.65
78123;BME280;67376;44.802;10.332;2023-04-03T08:05:18;100768.19;;;19.91;37.57
78123;BME280;67376;44.802;10.332;2023-04-03T08:07:44;100763.59;;;19.92;37.53
78123;BME280;67376;44.802;10.332;2023-04-03T08:10:09;100771.13;;;19.90;37.34
78123;BME280;67376;44.802;10.332;2023-04-03T08:12:35;100772.88;;;19.84;38.79
78123;BME280;67376;44.802;10.332;2023-04-03T08:15:03;100764.28;;;19.87;38.60
78123;BME280;67376;44.802;10.332;2023-04-03T08:17:28;100759.94;;;19.86;37.97
78123;BME280;67376;44.802;10.332;2023-04-03T08:19:53;100772.41;;;19.87;39.21
78123;BME280;67376;44.802;10.332;2023-04-03T08:22:19;100768.88;;;19.87;39.59
78123;BME280;67376;44.802;10.332;2023-04-03T08:24:45;100768.66;;;19.88;38.50
78123;BME280;67376;44.802;10.332;2023-04-03T08:27:10;100769.25;;;19.90;38.37
78123;BME280;67376;44.802;10.332;2023-04-03T08:29:35;100776.56;;;19.90;38.44
78123;BME280;67376;44.802;10.332;2023-04-03T08:32:03;100771.72;;;19.92;38.41
78123;BME280;67376;44.802;10.332;2023-04-03T08:34:29;100764.28;;;19.87;39.33
78123;BME280;67376;44.802;10.332;2023-04-03T08:36:54;100769.47;;;19.89;39.17
78123;BME280;67376;44.802;10.332;2023-04-03T08:39:20;100767.13;;;19.92;37.93
78123;BME280;67376;44.802;10.332;2023-04-03T08:41:46;100764.91;;;20.01;38.12
78123;BME280;67376;44.802;10.332;2023-04-03T08:49:33;100757.88;;;20.11;38.39
78123;BME280;67376;44.802;10.332;2023-04-03T08:52:02;100762.00;;;20.14;37.63
78123;BME280;67376;44.802;10.332;2023-04-03T08:55:03;100757.16;;;20.16;38.33
78123;BME280;67376;44.802;10.332;2023-04-03T08:57:34;100755.97;;;20.12;38.41
78123;BME280;67376;44.802;10.332;2023-04-03T09:00:07;100756.81;;;20.13;38.71
78123;BME280;67376;44.802;10.332;2023-04-03T09:02:46;100752.22;;;20.13;39.52
78123;BME280;67376;44.802;10.332;2023-04-03T09:05:15;100747.25;;;20.10;40.29
78123;BME280;67376;44.802;10.332;2023-04-03T09:08:00;100759.06;;;20.16;39.53
78123;BME280;67376;44.802;10.332;2023-04-03T09:10:32;100749.41;;;20.20;39.31
78123;BME280;67376;44.802;10.332;2023-04-03T09:13:06;100753.50;;;20.22;38.83
78123;BME280;67376;44.802;10.332;2023-04-03T09:15:34;100747.59;;;20.25;39.65
78123;BME280;67376;44.802;10.332;2023-04-03T09:23:44;100753.97;;;20.31;39.86
78123;BME280;67376;44.802;10.332;2023-04-03T09:26:41;100753.75;;;20.32;39.48
78123;BME280;67376;44.802;10.332;2023-04-03T09:29:14;100751.25;;;20.31;39.96
78123;BME280;67376;44.802;10.332;2023-04-03T09:31:43;100733.94;;;20.32;39.34
78123;BME280;67376;44.802;10.332;2023-04-03T09:34:20;100747.84;;;20.35;40.11
78123;BME280;67376;44.802;10.332;2023-04-03T09:36:51;100747.25;;;20.33;40.06
78123;BME280;67376;44.802;10.332;2023-04-03T09:39:22;100747.72;;;20.30;39.67
78123;BME280;67376;44.802;10.332;2023-04-03T09:44:25;100744.66;;;20.27;39.49
78123;BME280;67376;44.802;10.332;2023-04-03T09:46:50;100746.44;;;20.33;40.20
78123;BME280;67376;44.802;10.332;2023-04-03T09:49:17;100746.44;;;20.33;40.00
78123;BME280;67376;44.802;10.332;2023-04-03T09:51:43;100750.06;;;20.27;39.25
78123;BME280;67376;44.802;10.332;2023-04-03T09:54:36;100733.72;;;20.22;40.02
78123;BME280;67376;44.802;10.332;2023-04-03T09:57:09;100737.72;;;20.19;39.57
78123;BME280;67376;44.802;10.332;2023-04-03T09:59:37;100734.44;;;20.17;39.48
78123;BME280;67376;44.802;10.332;2023-04-03T10:04:46;100732.06;;;20.21;39.62
78123;BME280;67376;44.802;10.332;2023-04-03T10:10:01;100728.16;;;20.28;39.13
78123;BME280;67376;44.802;10.332;2023-04-03T10:12:29;100725.22;;;20.30;39.97
78123;BME280;67376;44.802;10.332;2023-04-03T10:14:59;100725.91;;;20.25;39.84
78123;BME280;67376;44.802;10.332;2023-04-03T10:25:47;100711.53;;;20.25;39.01
78123;BME280;67376;44.802;10.332;2023-04-03T10:33:55;100697.28;;;20.29;39.26
78123;BME280;67376;44.802;10.332;2023-04-03T10:39:29;100702.69;;;20.29;39.46
78123;BME280;67376;44.802;10.332;2023-04-03T10:47:25;100697.28;;;20.29;38.25
78123;BME280;67376;44.802;10.332;2023-04-03T10:49:56;100696.91;;;20.26;38.51
78123;BME280;67376;44.802;10.332;2023-04-03T10:52:40;100688.44;;;20.22;38.47
78123;BME280;67376;44.802;10.332;2023-04-03T10:57:40;100686.47;;;20.18;38.84
78123;BME280;67376;44.802;10.332;2023-04-03T11:00:14;100692.22;;;20.21;39.19
78123;BME280;67376;44.802;10.332;2023-04-03T11:02:51;100687.88;;;20.20;38.29
78123;BME280;67376;44.802;10.332;2023-04-03T11:05:28;100683.75;;;20.18;38.88
78123;BME280;67376;44.802;10.332;2023-04-03T11:08:01;100690.81;;;20.19;39.22
78123;BME280;67376;44.802;10.332;2023-04-03T11:10:49;100692.47;;;20.20;39.07
78123;BME280;67376;44.802;10.332;2023-04-03T11:13:47;100684.66;;;20.23;38.01
78123;BME280;67376;44.802;10.332;2023-04-03T11:16:16;100683.84;;;20.23;39.14
78123;BME280;67376;44.802;10.332;2023-04-03T11:19:03;100670.28;;;20.23;39.09
78123;BME280;67376;44.802;10.332;2023-04-03T11:21:37;100668.41;;;20.23;39.07
78123;BME280;67376;44.802;10.332;2023-04-03T11:24:05;100663.25;;;20.22;38.95
78123;BME280;67376;44.802;10.332;2023-04-03T11:26:41;100672.16;;;20.22;38.19
78123;BME280;67376;44.802;10.332;2023-04-03T11:29:14;100658.59;;;20.22;37.96
78123;BME280;67376;44.802;10.332;2023-04-03T11:34:39;100663.25;;;20.22;37.97
78123;BME280;67376;44.802;10.332;2023-04-03T11:39:54;100649.91;;;20.20;38.86
78123;BME280;67376;44.802;10.332;2023-04-03T11:42:37;100650.97;;;20.19;39.05
78123;BME280;67376;44.802;10.332;2023-04-03T11:47:49;100637.44;;;20.19;37.90
78123;BME280;67376;44.802;10.332;2023-04-03T11:53:26;100647.44;;;20.19;37.50
78123;BME280;67376;44.802;10.332;2023-04-03T11:58:33;100632.47;;;20.16;37.45
78123;BME280;67376;44.802;10.332;2023-04-03T12:16:29;100611.63;;;20.17;37.30
78123;BME280;67376;44.802;10.332;2023-04-03T12:29:23;100607.50;;;20.14;35.99
78123;BME280;67376;44.802;10.332;2023-04-03T12:40:19;100584.41;;;20.11;36.08
78123;BME280;67376;44.802;10.332;2023-04-03T12:45:43;100582.28;;;20.14;36.08
78123;BME280;67376;44.802;10.332;2023-04-03T12:48:14;100586.63;;;20.15;36.56
78123;BME280;67376;44.802;10.332;2023-04-03T12:50:41;100583.09;;;20.14;35.68
78123;BME280;67376;44.802;10.332;2023-04-03T12:53:12;100582.28;;;20.14;36.26
78123;BME280;67376;44.802;10.332;2023-04-03T12:55:38;100577.69;;;20.14;35.68
78123;BME280;67376;44.802;10.332;2023-04-03T12:58:33;100592.66;;;20.17;36.06
78123;BME280;67376;44.802;10.332;2023-04-03T13:01:22;100581.81;;;20.17;35.71
78123;BME280;67376;44.802;10.332;2023-04-03T13:03:52;100574.50;;;20.17;35.93
78123;BME280;67376;44.802;10.332;2023-04-03T13:06:23;100571.19;;;20.15;36.09
78123;BME280;67376;44.802;10.332;2023-04-03T13:09:00;100557.88;;;20.14;35.49
78123;BME280;67376;44.802;10.332;2023-04-03T13:11:38;100560.13;;;20.17;36.55
78123;BME280;67376;44.802;10.332;2023-04-03T13:14:17;100564.72;;;20.16;35.74
78123;BME280;67376;44.802;10.332;2023-04-03T13:16:53;100557.66;;;20.15;35.52
78123;BME280;67376;44.802;10.332;2023-04-03T13:19:20;100554.69;;;20.17;35.27
78123;BME280;67376;44.802;10.332;2023-04-03T13:21:45;100548.69;;;20.15;35.28
78123;BME280;67376;44.802;10.332;2023-04-03T13:24:12;100551.63;;;20.13;35.49
78123;BME280;67376;44.802;10.332;2023-04-03T13:26:38;100545.38;;;20.13;36.09
78123;BME280;67376;44.802;10.332;2023-04-03T13:29:19;100551.41;;;20.15;36.02
78123;BME280;67376;44.802;10.332;2023-04-03T13:31:46;100544.44;;;20.19;35.13
78123;BME280;67376;44.802;10.332;2023-04-03T13:34:18;100545.50;;;20.18;35.80
78123;BME280;67376;44.802;10.332;2023-04-03T13:36:59;100539.00;;;20.19;35.76
78123;BME280;67376;44.802;10.332;2023-04-03T13:39:37;100548.78;;;20.20;35.47
78123;BME280;67376;44.802;10.332;2023-04-03T13:42:22;100547.16;;;20.19;35.52
78123;BME280;67376;44.802;10.332;2023-04-03T13:44:49;100555.28;;;20.19;35.51
78123;BME280;67376;44.802;10.332;2023-04-03T13:47:38;100552.56;;;20.19;36.06
78123;BME280;67376;44.802;10.332;2023-04-03T13:50:25;100561.53;;;20.19;35.49
78123;BME280;67376;44.802;10.332;2023-04-03T13:53:02;100568.25;;;20.17;36.12
78123;BME280;67376;44.802;10.332;2023-04-03T13:55:31;100555.75;;;20.16;36.33
78123;BME280;67376;44.802;10.332;2023-04-03T13:57:58;100562.00;;;20.16;35.41
78123;BME280;67376;44.802;10.332;2023-04-03T14:00:39;100562.00;;;20.16;36.38
78123;BME280;67376;44.802;10.332;2023-04-03T14:03:25;100559.63;;;20.20;36.41
78123;BME280;67376;44.802;10.332;2023-04-03T14:05:51;100557.16;;;20.18;35.97
78123;BME280;67376;44.802;10.332;2023-04-03T14:08:18;100553.72;;;20.23;35.97
78123;BME280;67376;44.802;10.332;2023-04-03T14:10:43;100552.88;;;20.22;36.05
78123;BME280;67376;44.802;10.332;2023-04-03T14:13:12;100552.66;;;20.24;35.65
78123;BME280;67376;44.802;10.332;2023-04-03T14:15:39;100547.22;;;20.24;35.89
78123;BME280;67376;44.802;10.332;2023-04-03T14:18:04;100553.72;;;20.23;35.22
78123;BME280;67376;44.802;10.332;2023-04-03T14:20:29;100553.41;;;20.19;35.55
78123;BME280;67376;44.802;10.332;2023-04-03T14:22:55;100554.47;;;20.18;35.24
78123;BME280;67376;44.802;10.332;2023-04-03T14:25:21;100553.63;;;20.18;35.54